Time;durP1;ratioP1;P1;durP2;ratioP2;P2;SDS_P1;SDS_P2;PMS_P1;PMS_P2;Temp;Humidity;BMP_temperature;BMP_pressure;BME280_temperature;BME280_humidity;BME280_pressure;Samples;Min_cycle;Max_cycle;Signal;HPM_P1;HPM_P2
2022/09/20 00:01:01;;;;;;;17.40;3.08;;;10.70;99.90;;;;;;5059895;28;20042;-77
2022/09/20 00:03:28;;;;;;;12.82;2.85;;;10.70;99.90;;;;;;5068249;28;20083;-76
2022/09/20 00:05:54;;;;;;;10.65;2.88;;;10.70;99.90;;;;;;5067178;28;20025;-77
2022/09/20 00:08:19;;;;;;;12.70;2.30;;;10.70;99.90;;;;;;5069614;28;20120;-77
2022/09/20 00:10:45;;;;;;;13.10;2.55;;;10.70;99.90;;;;;;5071265;28;20200;-77
2022/09/20 00:13:12;;;;;;;13.25;2.10;;;10.70;99.90;;;;;;5074653;28;20043;-77
2022/09/20 00:15:44;;;;;;;13.25;2.60;;;10.70;99.90;;;;;;5069507;28;20063;-77
2022/09/20 00:18:11;;;;;;;12.75;2.42;;;10.70;99.90;;;;;;5073597;28;20013;-77
2022/09/20 00:20:45;;;;;;;9.05;2.30;;;10.70;99.90;;;;;;5072585;28;20027;-77
2022/09/20 00:23:10;;;;;;;15.10;2.88;;;10.60;99.90;;;;;;5075100;28;20016;-76
2022/09/20 00:25:36;;;;;;;12.25;2.45;;;10.70;99.90;;;;;;5075752;28;20058;-77
2022/09/20 00:28:02;;;;;;;10.40;2.13;;;10.60;99.90;;;;;;5077147;28;20028;-76
2022/09/20 00:30:28;;;;;;;9.00;2.38;;;10.70;99.90;;;;;;5069740;28;20044;-76
2022/09/20 00:32:54;;;;;;;9.98;2.13;;;10.70;99.90;;;;;;5067242;28;20446;-77
2022/09/20 00:35:20;;;;;;;14.50;2.63;;;10.60;99.90;;;;;;5071555;28;20033;-77
2022/09/20 00:37:46;;;;;;;9.77;2.22;;;10.60;99.90;;;;;;5053208;28;20079;-77
2022/09/20 00:40:15;;;;;;;8.75;1.98;;;10.60;99.90;;;;;;5067366;28;20054;-77
2022/09/20 00:42:41;;;;;;;12.07;2.83;;;10.60;99.90;;;;;;5071531;28;20033;-77
2022/09/20 00:45:12;;;;;;;10.38;2.25;;;10.60;99.90;;;;;;5074810;28;20093;-77
2022/09/20 00:47:50;;;;;;;10.88;1.98;;;10.60;99.90;;;;;;5071809;28;20099;-76
2022/09/20 00:50:39;;;;;;;14.27;2.20;;;10.50;99.90;;;;;;5067157;28;20111;-77
2022/09/20 00:53:28;;;;;;;15.18;2.55;;;10.60;99.90;;;;;;5065912;28;20039;-77
2022/09/20 00:56:05;;;;;;;12.00;2.10;;;10.60;99.90;;;;;;5047338;28;20094;-77
2022/09/20 00:58:34;;;;;;;13.00;3.35;;;10.50;99.90;;;;;;5071136;28;20028;-78
2022/09/20 01:01:00;;;;;;;10.07;2.20;;;10.50;99.90;;;;;;5075812;28;20042;-77
2022/09/20 01:03:30;;;;;;;7.43;1.98;;;10.50;99.90;;;;;;5068523;28;20360;-77
2022/09/20 01:06:01;;;;;;;16.58;2.70;;;10.50;99.90;;;;;;5067247;28;20056;-77
2022/09/20 01:08:27;;;;;;;13.57;2.80;;;10.40;99.90;;;;;;5062336;28;20037;-77
2022/09/20 01:10:53;;;;;;;10.38;2.00;;;10.50;99.90;;;;;;5044291;28;20055;-77
2022/09/20 01:13:19;;;;;;;13.00;2.80;;;10.50;99.90;;;;;;5071506;28;20523;-79
2022/09/20 01:15:47;;;;;;;8.68;2.00;;;10.40;99.90;;;;;;5046543;28;20024;-78
2022/09/20 01:18:15;;;;;;;12.15;3.25;;;10.40;99.90;;;;;;5066380;28;20040;-77
2022/09/20 01:20:43;;;;;;;12.20;2.38;;;10.40;99.90;;;;;;5063752;28;20130;-77
2022/09/20 01:23:42;;;;;;;14.35;3.22;;;10.40;99.90;;;;;;5077005;28;20033;-77
2022/09/20 01:26:37;;;;;;;16.98;3.63;;;10.40;99.90;;;;;;5041703;28;20564;-80
2022/09/20 01:29:27;;;;;;;16.55;3.40;;;10.40;99.90;;;;;;5073154;28;20150;-77
2022/09/20 01:31:58;;;;;;;13.23;2.40;;;10.30;99.90;;;;;;5069159;28;20879;-78
2022/09/20 01:34:33;;;;;;;15.77;3.55;;;10.30;99.90;;;;;;5076531;28;20035;-77
2022/09/20 01:37:31;;;;;;;12.48;2.83;;;10.30;99.90;;;;;;5073166;28;20028;-78
2022/09/20 01:40:05;;;;;;;15.32;3.30;;;10.30;99.90;;;;;;5077277;28;20163;-78
2022/09/20 01:42:45;;;;;;;11.38;3.17;;;10.30;99.90;;;;;;5069162;28;20500;-77
2022/09/20 01:45:40;;;;;;;10.00;2.95;;;10.30;99.90;;;;;;5094520;28;20052;-78
2022/09/20 01:48:24;;;;;;;12.13;2.75;;;10.30;99.90;;;;;;5070308;28;20029;-78
2022/09/20 01:51:20;;;;;;;9.73;2.72;;;10.30;99.90;;;;;;5068546;28;20032;-78
2022/09/20 01:53:54;;;;;;;12.43;2.97;;;10.30;99.90;;;;;;5086727;28;20021;-78
2022/09/20 01:56:59;;;;;;;11.38;2.90;;;10.30;99.90;;;;;;5072869;28;20028;-78
2022/09/20 02:00:01;;;;;;;16.85;3.80;;;10.30;99.90;;;;;;5041250;28;20040;-77
2022/09/20 02:03:04;;;;;;;10.65;2.92;;;10.30;99.90;;;;;;5068970;28;20127;-77
2022/09/20 02:05:55;;;;;;;8.82;3.00;;;10.30;99.90;;;;;;5051875;28;20054;-77
2022/09/20 02:09:15;;;;;;;11.10;3.45;;;10.20;99.90;;;;;;5088758;28;20055;-77
2022/09/20 02:12:14;;;;;;;7.63;2.70;;;10.30;99.90;;;;;;5014441;28;20075;-76
2022/09/20 02:15:13;;;;;;;7.95;3.10;;;10.30;99.90;;;;;;5081852;28;20104;-77
2022/09/20 02:17:50;;;;;;;9.10;2.80;;;10.30;99.90;;;;;;5070751;28;20035;-77
2022/09/20 02:20:19;;;;;;;14.43;3.35;;;10.30;99.90;;;;;;5069244;28;20104;-78
2022/09/20 02:23:03;;;;;;;10.73;2.78;;;10.20;99.90;;;;;;5072860;28;20021;-78
2022/09/20 02:25:51;;;;;;;12.05;3.33;;;10.20;99.90;;;;;;5074497;28;20056;-78
2022/09/20 02:28:48;;;;;;;10.45;2.30;;;10.20;99.90;;;;;;5073972;28;20058;-77
2022/09/20 02:31:24;;;;;;;7.20;2.95;;;10.20;99.90;;;;;;5072207;28;20382;-77
2022/09/20 02:34:24;;;;;;;14.18;3.28;;;10.20;99.90;;;;;;5077328;28;20029;-78
2022/09/20 02:37:04;;;;;;;9.63;2.67;;;10.20;99.90;;;;;;5075481;28;20070;-77
2022/09/20 02:39:52;;;;;;;8.32;3.15;;;10.20;99.90;;;;;;5067243;28;20024;-78
2022/09/20 02:42:27;;;;;;;14.27;3.42;;;10.20;99.90;;;;;;5051136;28;20048;-78
2022/09/20 02:44:59;;;;;;;15.20;3.40;;;10.20;99.90;;;;;;5069506;28;20048;-77
2022/09/20 02:47:42;;;;;;;10.55;2.38;;;10.10;99.90;;;;;;5082994;28;20163;-76
2022/09/20 02:50:23;;;;;;;10.77;2.60;;;10.10;99.90;;;;;;5069183;28;20036;-77
2022/09/20 02:52:49;;;;;;;;;;;10.10;99.90;;;;;;5070872;28;20142;-76
2022/09/20 02:55:22;;;;;;;9.88;3.00;;;10.10;99.90;;;;;;5060636;28;19920;-77
2022/09/20 02:57:58;;;;;;;11.73;2.72;;;10.10;99.90;;;;;;5069465;28;20059;-77
2022/09/20 03:00:33;;;;;;;9.38;2.55;;;10.10;99.90;;;;;;5061073;28;20112;-77
2022/09/20 03:03:20;;;;;;;9.48;3.70;;;10.00;99.90;;;;;;5037154;28;20036;-77
2022/09/20 03:06:16;;;;;;;7.35;2.60;;;10.00;99.90;;;;;;5042456;28;20445;-77
2022/09/20 03:09:04;;;;;;;8.30;2.88;;;10.00;99.90;;;;;;5063731;28;20082;-77
2022/09/20 03:12:08;;;;;;;9.73;2.90;;;10.00;99.90;;;;;;5065453;28;20027;-77
2022/09/20 03:14:52;;;;;;;8.75;2.67;;;10.00;99.90;;;;;;5026810;28;20059;-77
2022/09/20 03:17:44;;;;;;;6.32;2.30;;;10.00;99.90;;;;;;5039608;28;20041;-77
2022/09/20 03:20:22;;;;;;;8.60;2.58;;;10.00;99.90;;;;;;5037636;28;20081;-77
2022/09/20 03:23:36;;;;;;;7.05;2.55;;;9.90;99.90;;;;;;5057185;28;20516;-77
2022/09/20 03:26:29;;;;;;;9.00;2.50;;;9.90;99.90;;;;;;5065468;28;20103;-77
2022/09/20 03:29:19;;;;;;;6.45;2.55;;;9.90;99.90;;;;;;5066591;28;20032;-77
2022/09/20 03:31:59;;;;;;;5.88;2.25;;;9.90;99.90;;;;;;5059826;28;20031;-77
2022/09/20 03:35:07;;;;;;;6.70;2.72;;;9.90;99.90;;;;;;5055419;28;20033;-77
2022/09/20 03:37:57;;;;;;;7.78;2.33;;;9.80;99.90;;;;;;5042915;28;20357;-76
2022/09/20 03:40:57;;;;;;;9.43;2.50;;;9.80;99.90;;;;;;5066259;28;20101;-76
2022/09/20 03:43:46;;;;;;;6.32;2.33;;;9.80;99.90;;;;;;5061130;28;20547;-77
2022/09/20 03:46:25;;;;;;;7.45;2.50;;;9.80;99.90;;;;;;5061106;28;20079;-78
2022/09/20 03:49:29;;;;;;;9.30;2.55;;;9.80;99.90;;;;;;5062065;28;20111;-77
2022/09/20 03:52:17;;;;;;;5.68;2.30;;;9.80;99.90;;;;;;5057699;28;20044;-77
2022/09/20 03:55:15;;;;;;;6.35;2.00;;;9.80;99.90;;;;;;5062853;28;20025;-77
2022/09/20 03:58:00;;;;;;;5.18;2.55;;;9.70;99.90;;;;;;5055111;28;20037;-77
2022/09/20 04:00:48;;;;;;;5.95;2.22;;;9.70;99.90;;;;;;5060117;28;20024;-77
2022/09/20 04:03:34;;;;;;;5.10;2.05;;;9.70;99.90;;;;;;5065771;28;20030;-77
2022/09/20 04:06:00;;;;;;;5.10;1.95;;;9.70;99.90;;;;;;5065302;28;20023;-77
2022/09/20 04:08:57;;;;;;;5.07;2.30;;;9.70;99.90;;;;;;5065821;28;20093;-76
2022/09/20 04:11:43;;;;;;;7.05;1.92;;;9.70;99.90;;;;;;5067141;28;20202;-77
2022/09/20 04:14:31;;;;;;;6.63;2.78;;;9.60;99.90;;;;;;5070670;28;20025;-77
2022/09/20 04:17:14;;;;;;;6.22;1.98;;;9.60;99.90;;;;;;5065393;28;20028;-78
2022/09/20 04:20:20;;;;;;;5.07;2.03;;;9.60;99.90;;;;;;5062789;28;20021;-77
2022/09/20 04:22:50;;;;;;;7.70;2.45;;;9.60;99.90;;;;;;5082532;28;20025;-77
2022/09/20 04:25:20;;;;;;;7.15;2.10;;;9.60;99.90;;;;;;5064698;28;20036;-77
2022/09/20 04:27:57;;;;;;;8.77;2.70;;;9.60;99.90;;;;;;5065840;28;20024;-77
2022/09/20 04:30:31;;;;;;;5.38;2.15;;;9.60;99.90;;;;;;5047480;28;20033;-77
2022/09/20 04:33:22;;;;;;;9.48;2.70;;;9.60;99.90;;;;;;5072369;28;20032;-77
2022/09/20 04:36:29;;;;;;;5.40;2.35;;;9.60;99.90;;;;;;5080210;28;20403;-77
2022/09/20 04:39:24;;;;;;;5.18;1.70;;;9.50;99.90;;;;;;5067126;28;20059;-77
2022/09/20 04:42:20;;;;;;;6.03;2.38;;;9.50;99.90;;;;;;5068597;28;20025;-77
2022/09/20 04:44:49;;;;;;;7.22;2.78;;;9.50;99.90;;;;;;5044080;28;20021;-77
2022/09/20 04:47:37;;;;;;;6.25;2.10;;;9.50;99.90;;;;;;5069955;28;20024;-78
2022/09/20 04:50:21;;;;;;;8.02;2.40;;;9.50;99.90;;;;;;5066483;28;20029;-78
2022/09/20 04:53:05;;;;;;;5.40;2.72;;;9.50;99.90;;;;;;5046751;28;20089;-77
2022/09/20 04:55:34;;;;;;;6.90;2.25;;;9.50;99.90;;;;;;5051470;28;20666;-78
2022/09/20 04:58:37;;;;;;;5.95;2.30;;;9.50;99.90;;;;;;5075297;28;20025;-78
2022/09/20 05:01:35;;;;;;;6.40;2.67;;;9.50;99.90;;;;;;5067340;28;20051;-77
2022/09/20 05:04:39;;;;;;;5.82;1.77;;;9.50;99.90;;;;;;5062830;28;20538;-78
2022/09/20 05:07:40;;;;;;;6.53;2.10;;;9.40;99.90;;;;;;5070480;28;20044;-77
2022/09/20 05:10:43;;;;;;;5.78;1.98;;;9.40;99.90;;;;;;5033059;28;20729;-77
2022/09/20 05:13:38;;;;;;;6.30;2.63;;;9.50;99.90;;;;;;5060933;28;20025;-77
2022/09/20 05:16:07;;;;;;;7.00;2.38;;;9.40;99.90;;;;;;5064000;28;20024;-77
2022/09/20 05:19:06;;;;;;;6.43;1.85;;;9.50;99.90;;;;;;5053977;28;20018;-77
2022/09/20 05:21:58;;;;;;;9.68;1.90;;;9.40;99.90;;;;;;5065619;28;20024;-77
2022/09/20 05:25:01;;;;;;;8.85;2.03;;;9.50;99.90;;;;;;5080402;28;20082;-76
2022/09/20 05:27:32;;;;;;;10.48;2.80;;;9.50;99.90;;;;;;5053476;28;20065;-78
2022/09/20 05:30:06;;;;;;;;;;;9.50;99.90;;;;;;5067223;28;20032;-77
2022/09/20 05:33:09;;;;;;;7.97;2.30;;;9.50;99.90;;;;;;5068688;28;19940;-78
2022/09/20 05:35:57;;;;;;;5.93;2.40;;;9.50;99.90;;;;;;5062855;28;20025;-76
2022/09/20 05:38:22;;;;;;;7.90;2.00;;;9.50;99.90;;;;;;5045674;28;20024;-76
2022/09/20 05:41:02;;;;;;;9.27;1.92;;;9.50;99.90;;;;;;5061819;28;20114;-80
2022/09/20 05:43:35;;;;;;;6.10;2.08;;;9.60;99.90;;;;;;5046872;28;20250;-77
2022/09/20 05:46:15;;;;;;;5.75;1.73;;;9.60;99.90;;;;;;5062410;28;20089;-77
2022/09/20 05:49:03;;;;;;;6.18;1.90;;;9.60;99.90;;;;;;5063497;28;20054;-77
2022/09/20 05:51:58;;;;;;;6.28;1.75;;;9.60;99.90;;;;;;5063775;28;20396;-77
2022/09/20 05:54:42;;;;;;;5.93;2.40;;;9.60;99.90;;;;;;5059455;28;20497;-77
2022/09/20 05:57:32;;;;;;;5.25;1.83;;;9.70;99.90;;;;;;5057186;28;20512;-77
2022/09/20 06:00:07;;;;;;;4.10;1.75;;;9.70;99.90;;;;;;5057426;28;20143;-77
2022/09/20 06:02:55;;;;;;;3.70;1.10;;;9.70;99.90;;;;;;5060224;28;20036;-77
2022/09/20 06:05:59;;;;;;;5.03;1.30;;;10.20;99.90;;;;;;5061211;28;20029;-77
2022/09/20 06:08:56;;;;;;;5.18;1.83;;;11.50;99.90;;;;;;5060418;28;20087;-77
2022/09/20 06:11:34;;;;;;;3.92;1.38;;;11.30;99.90;;;;;;5070339;28;20064;-77
2022/09/20 06:14:02;;;;;;;6.35;1.50;;;10.90;99.90;;;;;;5068828;28;20024;-77
2022/09/20 06:16:55;;;;;;;6.38;1.83;;;10.60;99.90;;;;;;5046623;28;20027;-77
2022/09/20 06:19:49;;;;;;;5.28;1.40;;;10.50;99.90;;;;;;5065777;28;20034;-77
2022/09/20 06:22:26;;;;;;;10.80;1.90;;;10.30;99.90;;;;;;5067022;28;20130;-77
2022/09/20 06:25:07;;;;;;;4.55;1.73;;;10.30;99.90;;;;;;5048246;28;20497;-76
2022/09/20 06:28:21;;;;;;;10.55;2.53;;;10.20;99.90;;;;;;5046222;28;20089;-77
2022/09/20 06:30:49;;;;;;;8.00;2.17;;;10.20;99.90;;;;;;5052456;28;20531;-79
2022/09/20 06:33:20;;;;;;;7.30;1.75;;;10.20;99.90;;;;;;5061895;28;20032;-78
2022/09/20 06:41:40;;;;;;;4.18;1.40;;;10.30;99.90;;;;;;5063322;28;20032;-79
2022/09/20 06:44:05;;;;;;;5.65;1.80;;;10.30;99.90;;;;;;5061308;28;20132;-77
2022/09/20 06:46:33;;;;;;;8.82;1.80;;;10.30;99.90;;;;;;5059547;28;20154;-76
2022/09/20 06:48:59;;;;;;;7.05;1.70;;;10.30;99.90;;;;;;5049960;28;20040;-77
2022/09/20 06:51:28;;;;;;;5.82;2.00;;;10.40;99.90;;;;;;5056923;28;20029;-77
2022/09/20 06:53:56;;;;;;;8.80;2.35;;;10.40;99.90;;;;;;5069032;28;20104;-78
2022/09/20 06:56:25;;;;;;;7.90;1.88;;;10.40;99.90;;;;;;5065288;28;20048;-76
2022/09/20 06:58:52;;;;;;;10.98;2.30;;;10.50;99.90;;;;;;5062660;28;20072;-78
2022/09/20 07:01:18;;;;;;;6.03;1.77;;;10.50;99.90;;;;;;5051493;28;20108;-77
2022/09/20 07:03:44;;;;;;;12.30;2.40;;;10.50;99.90;;;;;;5066994;28;20043;-78
2022/09/20 07:06:11;;;;;;;10.63;2.15;;;10.60;99.90;;;;;;5061900;28;20036;-77
2022/09/20 07:08:37;;;;;;;12.85;2.33;;;10.60;99.90;;;;;;5066178;28;20028;-77
2022/09/20 07:11:11;;;;;;;9.38;2.03;;;10.60;99.90;;;;;;5050305;28;20032;-77
2022/09/20 07:13:37;;;;;;;13.40;2.30;;;10.70;99.90;;;;;;5062531;28;20024;-77
2022/09/20 07:16:05;;;;;;;11.73;2.28;;;10.70;99.90;;;;;;5064569;28;20085;-78
2022/09/20 07:18:32;;;;;;;7.70;1.83;;;10.80;99.90;;;;;;5066224;28;20025;-77
2022/09/20 07:20:59;;;;;;;8.52;1.73;;;10.80;99.90;;;;;;5067156;28;20202;-78
2022/09/20 07:23:28;;;;;;;9.35;2.10;;;10.80;99.90;;;;;;5065615;28;20024;-77
2022/09/20 07:25:56;;;;;;;7.75;1.88;;;10.80;99.90;;;;;;5048854;28;20032;-77
2022/09/20 07:28:22;;;;;;;10.18;2.40;;;10.90;99.90;;;;;;5067222;28;20039;-78
2022/09/20 07:30:48;;;;;;;9.30;1.90;;;11.00;99.90;;;;;;5062249;28;20032;-78
2022/09/20 07:33:20;;;;;;;5.95;1.40;;;11.00;99.90;;;;;;5058389;28;20040;-78
2022/09/20 07:35:48;;;;;;;13.63;1.92;;;11.10;99.90;;;;;;5060020;28;20090;-77
2022/09/20 07:38:15;;;;;;;5.97;1.60;;;11.10;99.90;;;;;;5063526;28;20031;-77
2022/09/20 07:40:42;;;;;;;4.72;1.35;;;11.10;99.90;;;;;;5063446;28;20040;-77
2022/09/20 07:43:08;;;;;;;7.60;2.08;;;11.10;99.90;;;;;;5068637;28;20025;-77
2022/09/20 07:45:37;;;;;;;12.52;1.88;;;11.20;99.90;;;;;;5071458;28;20111;-78
2022/09/20 07:48:07;;;;;;;5.57;1.50;;;11.20;99.90;;;;;;5078637;28;20403;-78
2022/09/20 07:50:33;;;;;;;6.82;1.88;;;11.20;99.90;;;;;;5077012;28;20034;-78
2022/09/20 07:52:59;;;;;;;11.88;2.67;;;11.30;99.90;;;;;;5083114;28;20096;-78
2022/09/20 07:55:25;;;;;;;14.00;2.58;;;11.30;99.90;;;;;;5079622;28;20025;-78
2022/09/20 07:57:51;;;;;;;11.93;1.85;;;11.30;99.90;;;;;;5082229;28;20423;-79
2022/09/20 08:00:17;;;;;;;6.30;1.90;;;11.30;99.90;;;;;;5075164;28;20032;-78
2022/09/20 08:02:44;;;;;;;12.85;2.72;;;11.40;99.90;;;;;;5075550;28;20039;-77
2022/09/20 08:05:10;;;;;;;9.75;1.30;;;11.40;99.90;;;;;;5078677;28;20061;-77
2022/09/20 08:07:37;;;;;;;7.25;1.40;;;11.50;99.90;;;;;;5069770;28;20061;-78
2022/09/20 08:10:04;;;;;;;7.05;1.52;;;11.50;99.90;;;;;;5069895;28;20105;-79
2022/09/20 08:12:31;;;;;;;8.15;1.67;;;11.50;99.90;;;;;;5091202;28;20035;-77
2022/09/20 08:14:58;;;;;;;11.07;1.98;;;11.50;99.90;;;;;;5086771;28;20101;-78
2022/09/20 08:17:23;;;;;;;5.28;1.30;;;11.60;99.90;;;;;;5073342;28;20017;-76
2022/09/20 08:19:51;;;;;;;7.25;1.48;;;11.60;99.90;;;;;;5086955;28;20067;-78
2022/09/20 08:22:17;;;;;;;11.82;1.77;;;11.70;99.90;;;;;;5074034;28;20043;-79
2022/09/20 08:24:43;;;;;;;13.90;1.90;;;11.70;99.90;;;;;;5078857;28;20035;-78
2022/09/20 08:27:08;;;;;;;8.68;1.85;;;11.70;99.90;;;;;;5079413;28;20036;-78
2022/09/20 08:29:37;;;;;;;9.40;1.60;;;11.80;99.90;;;;;;5075023;28;20235;-77
2022/09/20 08:32:03;;;;;;;5.90;1.95;;;11.80;99.90;;;;;;5063382;28;20095;-77
2022/09/20 08:34:28;;;;;;;7.63;1.98;;;11.80;99.90;;;;;;5053724;28;20451;-78
2022/09/20 08:36:55;;;;;;;7.72;1.50;;;11.90;99.90;;;;;;5076579;28;20047;-79
2022/09/20 08:39:22;;;;;;;11.02;1.92;;;11.90;99.90;;;;;;5076676;28;20498;-78
2022/09/20 08:41:55;;;;;;;2.85;1.08;;;12.00;99.90;;;;;;5060422;28;20032;-78
2022/09/20 08:44:49;;;;;;;8.63;1.85;;;12.00;99.90;;;;;;5072122;28;20024;-79
2022/09/20 08:47:20;;;;;;;10.20;1.63;;;12.00;99.90;;;;;;5065959;28;20411;-80
2022/09/20 08:49:47;;;;;;;5.75;1.42;;;12.10;99.90;;;;;;5069449;28;20025;-77
2022/09/20 08:52:20;;;;;;;10.93;2.28;;;12.10;99.90;;;;;;5072051;28;20104;-77
2022/09/20 08:54:46;;;;;;;7.95;1.85;;;12.20;99.90;;;;;;5071374;28;20086;-77
2022/09/20 08:57:16;;;;;;;16.60;2.28;;;12.20;99.90;;;;;;5071587;28;20016;-77
2022/09/20 08:59:42;;;;;;;12.23;1.88;;;12.30;99.90;;;;;;5064537;28;20089;-78
2022/09/20 09:02:17;;;;;;;13.35;2.45;;;12.30;99.90;;;;;;5081975;28;20032;-79
2022/09/20 09:04:44;;;;;;;8.00;1.50;;;12.40;99.90;;;;;;5077699;28;20028;-78
2022/09/20 09:07:13;;;;;;;9.63;1.73;;;12.40;99.90;;;;;;5081070;28;20047;-77
2022/09/20 09:09:42;;;;;;;11.10;1.50;;;12.40;99.90;;;;;;5077955;28;20464;-77
2022/09/20 09:12:27;;;;;;;8.80;1.40;;;12.40;99.90;;;;;;5078228;28;20086;-77
2022/09/20 09:14:59;;;;;;;10.15;1.85;;;12.50;99.90;;;;;;5069993;28;20020;-77
2022/09/20 09:17:27;;;;;;;6.45;1.67;;;12.50;99.90;;;;;;5075446;28;20103;-77
2022/09/20 09:20:06;;;;;;;7.97;1.30;;;12.50;99.90;;;;;;5071507;28;20086;-77
2022/09/20 09:22:57;;;;;;;7.05;1.20;;;12.50;99.90;;;;;;5074137;28;20025;-78
2022/09/20 09:25:30;;;;;;;6.47;1.20;;;12.40;99.90;;;;;;4994388;28;20046;-78
2022/09/20 09:28:11;;;;;;;5.22;1.65;;;12.60;99.90;;;;;;5012047;28;20045;-78
2022/09/20 09:30:38;;;;;;;10.38;1.63;;;12.80;99.90;;;;;;4996044;28;20053;-77
2022/09/20 09:33:27;;;;;;;8.10;1.50;;;13.00;99.90;;;;;;4997001;28;20029;-77
2022/09/20 09:35:57;;;;;;;8.93;1.98;;;13.10;99.90;;;;;;4975464;28;20042;-77
2022/09/20 09:38:27;;;;;;;7.97;2.10;;;13.10;99.90;;;;;;4977033;28;20033;-76
2022/09/20 09:40:58;;;;;;;11.15;2.05;;;13.20;99.90;;;;;;5012074;28;20029;-77
2022/09/20 09:43:29;;;;;;;8.65;2.17;;;13.10;99.90;;;;;;5009762;28;20343;-77
2022/09/20 09:46:16;;;;;;;6.90;1.92;;;13.20;99.90;;;;;;5004120;28;20030;-77
2022/09/20 09:48:42;;;;;;;8.57;2.05;;;13.20;99.90;;;;;;4991575;28;20042;-78
2022/09/20 09:51:16;;;;;;;7.07;1.58;;;13.30;99.90;;;;;;5002683;28;20530;-78
2022/09/20 09:53:43;;;;;;;9.90;1.27;;;13.40;99.90;;;;;;5025783;28;20037;-77
2022/09/20 09:56:26;;;;;;;8.00;1.50;;;13.60;99.90;;;;;;5000863;28;20414;-78
2022/09/20 09:59:11;;;;;;;7.20;1.40;;;13.60;99.90;;;;;;5007544;28;20026;-77
2022/09/20 10:01:49;;;;;;;9.10;1.42;;;13.80;99.90;;;;;;5023288;28;20508;-77
2022/09/20 10:04:19;;;;;;;7.60;1.58;;;13.90;99.90;;;;;;5072830;28;20104;-78
2022/09/20 10:06:58;;;;;;;8.35;1.75;;;14.00;99.90;;;;;;5068127;28;20386;-76
2022/09/20 10:09:24;;;;;;;7.95;1.58;;;14.10;99.90;;;;;;5071269;28;20036;-77
2022/09/20 10:12:11;;;;;;;4.15;1.25;;;14.10;99.90;;;;;;5074801;28;20093;-77
2022/09/20 10:15:06;;;;;;;9.68;1.75;;;14.20;99.90;;;;;;5057311;28;20147;-77
2022/09/20 10:17:46;;;;;;;10.77;1.70;;;14.10;99.90;;;;;;5073269;28;20460;-78
2022/09/20 10:20:32;;;;;;;5.78;1.60;;;13.90;99.90;;;;;;5068929;28;20021;-77
2022/09/20 10:23:27;;;;;;;4.97;1.40;;;13.80;99.90;;;;;;5067496;28;20091;-78
2022/09/20 10:26:01;;;;;;;7.68;1.75;;;13.60;99.90;;;;;;5069967;28;20539;-77
2022/09/20 10:28:47;;;;;;;9.48;1.40;;;13.50;99.90;;;;;;5050051;28;20958;-78
2022/09/20 10:31:27;;;;;;;8.60;1.60;;;13.60;99.90;;;;;;5072078;28;20032;-77
2022/09/20 10:34:06;;;;;;;9.07;2.10;;;13.60;99.90;;;;;;5072166;28;20040;-78
2022/09/20 10:36:46;;;;;;;4.55;1.23;;;13.60;99.90;;;;;;5066435;28;20024;-78
2022/09/20 10:39:33;;;;;;;11.38;1.90;;;13.70;99.90;;;;;;5071795;28;20031;-78
2022/09/20 10:44:51;;;;;;;10.93;1.63;;;13.80;99.90;;;;;;5074498;28;20028;-77
2022/09/20 10:47:24;;;;;;;11.23;1.92;;;13.90;99.90;;;;;;5077160;28;20032;-78
2022/09/20 10:50:03;;;;;;;7.10;1.20;;;14.00;99.90;;;;;;5072010;28;20102;-78
2022/09/20 10:52:53;;;;;;;7.85;1.42;;;14.00;99.90;;;;;;5069388;28;20025;-77
2022/09/20 10:55:54;;;;;;;5.40;1.40;;;14.40;99.90;;;;;;5072623;28;20224;-77
2022/09/20 10:58:31;;;;;;;6.03;1.73;;;15.80;99.90;;;;;;5098394;28;20067;-76
2022/09/20 11:01:16;;;;;;;7.00;1.88;;;17.10;99.80;;;;;;5074883;28;20043;-77
2022/09/20 11:04:00;;;;;;;5.85;1.00;;;18.20;96.80;;;;;;5071231;28;20036;-77
2022/09/20 11:07:02;;;;;;;4.47;0.90;;;18.80;93.10;;;;;;5057850;28;20067;-77
2022/09/20 11:09:34;;;;;;;5.32;1.70;;;19.50;91.40;;;;;;5065220;28;20060;-77
2022/09/20 11:12:20;;;;;;;3.80;0.93;;;20.70;83.50;;;;;;5069355;28;20021;-77
2022/09/20 11:14:57;;;;;;;6.93;1.15;;;20.20;77.80;;;;;;5049796;28;20107;-78
2022/09/20 11:17:30;;;;;;;4.65;1.10;;;20.30;78.20;;;;;;5058924;28;20048;-79
2022/09/20 11:19:59;;;;;;;4.57;1.58;;;20.80;74.10;;;;;;5082978;28;20021;-79
2022/09/20 11:22:31;;;;;;;6.78;1.20;;;21.10;72.10;;;;;;5081612;28;20032;-80
2022/09/20 11:25:22;;;;;;;3.35;1.20;;;21.10;74.60;;;;;;5081964;28;20054;-79
2022/09/20 11:28:00;;;;;;;6.57;1.50;;;21.70;75.40;;;;;;5074369;28;20477;-79
2022/09/20 11:30:28;;;;;;;6.97;1.17;;;21.10;73.40;;;;;;5055093;28;20085;-79
2022/09/20 11:33:18;;;;;;;6.18;1.60;;;19.90;76.70;;;;;;5085967;28;20017;-78
2022/09/20 11:35:55;;;;;;;9.48;1.50;;;19.10;77.90;;;;;;5056898;28;20021;-79
2022/09/20 11:38:48;;;;;;;3.22;0.90;;;18.70;79.80;;;;;;5084295;28;20028;-77
2022/09/20 11:41:24;;;;;;;5.82;1.42;;;18.00;82.00;;;;;;5084288;28;20037;-78
2022/09/20 11:43:51;;;;;;;6.85;1.10;;;17.70;84.50;;;;;;5076020;28;20094;-78
2022/09/20 11:46:27;;;;;;;6.80;1.48;;;17.10;84.70;;;;;;5080488;28;20037;-76
2022/09/20 11:49:08;;;;;;;6.20;1.20;;;17.00;85.50;;;;;;5074414;28;20047;-77
2022/09/20 11:51:58;;;;;;;7.22;1.25;;;16.80;84.50;;;;;;5077562;28;20032;-79
2022/09/20 11:54:54;;;;;;;6.43;1.23;;;16.60;85.60;;;;;;5081917;28;20056;-78
2022/09/20 11:57:21;;;;;;;4.18;1.10;;;16.20;87.90;;;;;;5078610;28;20210;-78
2022/09/20 12:00:02;;;;;;;3.55;1.35;;;16.00;90.10;;;;;;5063105;28;20017;-78
2022/09/20 12:02:39;;;;;;;8.15;1.45;;;16.20;91.20;;;;;;5079564;28;20508;-78
2022/09/20 12:05:21;;;;;;;5.53;1.02;;;16.50;90.30;;;;;;5075185;28;20036;-77
2022/09/20 12:07:53;;;;;;;7.72;1.70;;;16.90;90.50;;;;;;5079839;28;20111;-77
2022/09/20 12:10:33;;;;;;;6.30;1.30;;;17.30;88.10;;;;;;5064087;28;20029;-78
2022/09/20 12:13:03;;;;;;;10.02;1.42;;;17.90;86.30;;;;;;5082033;28;20433;-78
2022/09/20 12:15:34;;;;;;;5.20;1.33;;;17.80;88.90;;;;;;5083150;28;20519;-79
2022/09/20 12:18:03;;;;;;;4.82;1.10;;;17.70;83.20;;;;;;5083660;28;20025;-78
2022/09/20 12:20:33;;;;;;;383.63;232.10;;;17.10;83.10;;;;;;5054888;28;22964;-78
2022/09/20 12:23:39;;;;;;;123.38;74.43;;;16.60;81.20;;;;;;5078611;28;20024;-78
2022/09/20 12:26:12;;;;;;;33.70;16.33;;;16.20;84.40;;;;;;5059973;28;20092;-78
2022/09/20 12:29:22;;;;;;;7.07;2.17;;;15.70;86.50;;;;;;5058944;28;20492;-76
2022/09/20 12:31:49;;;;;;;5.20;1.00;;;15.70;89.00;;;;;;5051572;28;20048;-77
2022/09/20 12:34:17;;;;;;;7.40;1.15;;;15.50;90.90;;;;;;5078068;28;20017;-78
2022/09/20 12:36:52;;;;;;;3.72;1.02;;;15.50;90.80;;;;;;5070030;28;20025;-78
2022/09/20 12:39:23;;;;;;;7.18;1.08;;;15.40;92.00;;;;;;5059232;28;20044;-77
2022/09/20 12:41:54;;;;;;;4.13;1.10;;;15.40;91.90;;;;;;5079418;28;20040;-77
2022/09/20 12:44:31;;;;;;;7.55;1.35;;;15.50;91.30;;;;;;5080960;28;20086;-78
2022/09/20 12:47:03;;;;;;;5.28;1.15;;;15.50;92.20;;;;;;5079713;28;20020;-77
2022/09/20 12:55:11;;;;;;;6.18;1.30;;;15.30;91.90;;;;;;5079140;28;20078;-78
2022/09/20 12:57:38;;;;;;;6.57;1.13;;;15.10;92.30;;;;;;5083541;28;20598;-78
2022/09/20 13:00:05;;;;;;;5.38;1.13;;;15.10;92.90;;;;;;5077676;28;20099;-78
2022/09/20 13:02:50;;;;;;;8.60;1.65;;;15.00;94.30;;;;;;5079192;28;20048;-77
2022/09/20 13:05:32;;;;;;;4.97;1.08;;;15.00;93.70;;;;;;5076192;28;20101;-78
2022/09/20 13:08:04;;;;;;;;;;;14.90;92.80;;;;;;5073660;28;20048;-78
2022/09/20 13:10:33;;;;;;;3.90;0.98;;;14.90;92.40;;;;;;5084393;28;20391;-77
2022/09/20 13:13:05;;;;;;;3.80;0.95;;;14.80;93.10;;;;;;5083067;28;20025;-78
2022/09/20 13:15:32;;;;;;;4.70;1.23;;;14.80;94.40;;;;;;5076099;28;20081;-76
2022/09/20 13:18:00;;;;;;;3.45;1.00;;;14.80;93.40;;;;;;5079502;28;20031;-77
2022/09/20 13:20:33;;;;;;;8.68;0.93;;;14.80;93.00;;;;;;5056040;28;20028;-77
2022/09/20 13:23:02;;;;;;;3.10;0.82;;;14.80;92.50;;;;;;5084261;28;20035;-77
2022/09/20 13:25:28;;;;;;;7.97;0.90;;;14.80;92.50;;;;;;5077707;28;20043;-78
2022/09/20 13:28:20;;;;;;;3.75;0.93;;;14.90;92.40;;;;;;5080934;28;20032;-77
2022/09/20 13:30:46;;;;;;;7.18;0.95;;;15.10;92.70;;;;;;5072030;28;20097;-77
2022/09/20 13:33:20;;;;;;;4.68;1.13;;;15.20;93.50;;;;;;5060074;28;20048;-78
2022/09/20 13:35:50;;;;;;;6.60;1.00;;;15.30;92.20;;;;;;5074002;28;20020;-77
2022/09/20 13:38:21;;;;;;;5.45;1.00;;;15.30;91.80;;;;;;5074408;28;20032;-78
2022/09/20 13:40:48;;;;;;;3.28;1.15;;;15.40;91.90;;;;;;5060180;28;20036;-77
2022/09/20 13:43:31;;;;;;;5.55;1.45;;;15.50;92.60;;;;;;5076199;28;20036;-78
2022/09/20 13:45:59;;;;;;;5.85;1.05;;;15.50;94.00;;;;;;5077320;28;20032;-77
2022/09/20 13:48:27;;;;;;;3.13;1.30;;;15.40;92.50;;;;;;5075631;28;20046;-76
2022/09/20 13:50:53;;;;;;;4.78;0.80;;;15.30;93.00;;;;;;5069517;28;20048;-77
2022/09/20 13:53:22;;;;;;;6.38;1.33;;;15.30;93.70;;;;;;5067110;28;20033;-78
2022/09/20 13:55:47;;;;;;;5.57;1.20;;;15.20;93.70;;;;;;5064375;28;20053;-76